Estación Meteorológica Peña el Pijo (Robertgarden) [ 04/19/21 03:21:05 CEST ]

Fecha Hora Presion(HPa) Temp (°C) Humedad % Rocio (°C) Viento ( m/s) Direccion Lluvia 1Hora(mm) Lluvia 24H(mm) LLuvia Total(mm)
2021-Apr-15 01:09:19 1005.900 6.9 96 6.3 - N     89.61
2021-Apr-15 02:09:39 1005.400 6.8 96 6.2 - N     89.61
2021-Apr-15 03:10:01 1005.100 6.6 96 6.0 - N     89.61
2021-Apr-15 04:10:27 1004.800 6.3 95 5.5 - N     89.61
2021-Apr-15 05:10:08 1004.800 5.6 96 5.0 - N     89.61
2021-Apr-15 06:09:58 1004.100 5.2 96 4.6 - N     89.61
2021-Apr-15 07:09:37 1004.500 5.3 96 4.7 - N     89.61
2021-Apr-15 08:09:35 1004.800 5.1 96 4.5 - N     89.61
2021-Apr-15 09:09:33 1005.100 5.2 96 4.6 - N     89.61
2021-Apr-15 10:09:21 1005.000 5.6 96 5.0 - N     89.61
2021-Apr-15 11:10:23 1005.300 5.8 96 5.2 - N     89.61
2021-Apr-15 12:09:54 1005.600 5.5 96 4.9 - N     89.61
2021-Apr-15 13:09:36 1005.800 6.3 95 5.5 - N     89.61
2021-Apr-15 14:10:00 1005.000 7.0 95 6.2 - N     89.61
2021-Apr-15 15:09:14 1004.800 6.6 95 5.8 - N     89.61
2021-Apr-15 16:09:13 1004.500 6.4 95 5.6 - N     89.61
2021-Apr-15 17:09:30 1004.000 6.8 96 6.2 - N     89.61
2021-Apr-15 18:09:06 1003.800 7.1 96 6.5 - N     89.61
2021-Apr-15 19:09:16 1003.900 6.9 96 6.3 - N     89.61
2021-Apr-15 20:09:23 1004.100 6.8 96 6.2 - N     89.61
2021-Apr-15 21:09:17 1004.100 6.7 96 6.1 - N     89.61
2021-Apr-15 22:09:46 1005.100 6.4 96 5.8 - N     89.61
2021-Apr-15 23:09:50 1005.100 6.4 96 5.8 - N     89.61

Temperatura Máxima:    Temperatura Mínima:
Presión Máxima:1005.900 Hpa    Presión Mínima:1003.800 Hpa


Volver